createdAt,value
2023-06-09T00:02:05.511Z,20.9
2023-06-09T00:04:35.953Z,20.9
2023-06-09T00:07:06.468Z,20.8
2023-06-09T00:09:37.347Z,20.9
2023-06-09T00:12:07.860Z,20.8
2023-06-09T00:14:38.717Z,20.7
2023-06-09T00:17:07.913Z,20.9
2023-06-09T00:19:38.506Z,20.9
2023-06-09T00:22:10.103Z,20.8
2023-06-09T00:24:41.155Z,20.8
2023-06-09T00:27:12.421Z,21
2023-06-09T00:29:43.876Z,21
2023-06-09T00:32:16.002Z,21
2023-06-09T00:34:46.941Z,20.9
2023-06-09T00:37:16.300Z,20.9
2023-06-09T00:39:47.002Z,21
2023-06-09T00:42:17.552Z,20.8
2023-06-09T00:44:48.710Z,20.9
2023-06-09T00:47:19.625Z,20.9
2023-06-09T00:49:50.338Z,20.8
2023-06-09T00:52:21.050Z,20.8
2023-06-09T00:54:52.229Z,20.9
2023-06-09T00:57:23.155Z,20.9
2023-06-09T00:59:53.790Z,20.9
2023-06-09T01:02:26.360Z,20.9
2023-06-09T01:04:57.477Z,20.8
2023-06-09T01:07:27.777Z,20.9
2023-06-09T01:09:58.429Z,20.9
2023-06-09T01:12:30.945Z,20.8
2023-06-09T01:15:01.982Z,20.7
2023-06-09T01:17:33.051Z,20.8
2023-06-09T01:20:04.031Z,20.7
2023-06-09T01:22:35.174Z,20.8
2023-06-09T01:25:06.210Z,20.8
2023-06-09T01:27:37.044Z,20.6
2023-06-09T01:30:07.846Z,20.6
2023-06-09T01:32:38.824Z,20.5
2023-06-09T01:35:09.402Z,20.4
2023-06-09T01:37:40.042Z,20.5
2023-06-09T01:40:11.225Z,20.4
2023-06-09T01:42:41.931Z,20.4
2023-06-09T01:45:13.048Z,20.5
2023-06-09T01:47:43.818Z,20.5
2023-06-09T01:50:14.805Z,20.5
2023-06-09T01:52:46.030Z,20.5
2023-06-09T01:55:16.880Z,20.5
2023-06-09T01:57:47.497Z,20.5
2023-06-09T02:00:18.506Z,20.7
2023-06-09T02:02:50.229Z,20.6
2023-06-09T02:05:21.104Z,20.5
2023-06-09T02:07:52.224Z,20.6
2023-06-09T02:10:23.077Z,20.6
2023-06-09T02:12:54.030Z,20.6
2023-06-09T02:15:25.143Z,20.6
2023-06-09T02:17:56.158Z,20.4
2023-06-09T02:20:26.886Z,20.5
2023-06-09T02:22:58.373Z,20.5
2023-06-09T02:25:29.003Z,20.5
2023-06-09T02:27:59.971Z,20.5
2023-06-09T02:30:30.956Z,20.6
2023-06-09T02:33:01.906Z,20.5
2023-06-09T02:35:32.623Z,20.6
2023-06-09T02:38:03.400Z,20.5
2023-06-09T02:40:34.531Z,20.4
2023-06-09T02:43:05.228Z,20.2
2023-06-09T02:45:36.024Z,20.2
2023-06-09T02:48:06.900Z,20.2
2023-06-09T02:50:37.615Z,20.3
2023-06-09T02:53:08.593Z,20.2
2023-06-09T02:55:39.528Z,20.2
2023-06-09T02:58:10.249Z,20.3
2023-06-09T03:00:41.192Z,20.3
2023-06-09T03:03:12.060Z,20.2
2023-06-09T03:05:43.101Z,20.3
2023-06-09T03:08:14.864Z,20.3
2023-06-09T03:10:46.173Z,20.2
2023-06-09T03:13:16.983Z,20.1
2023-06-09T03:15:47.659Z,20.2
2023-06-09T03:18:18.466Z,20.1
2023-06-09T03:20:49.397Z,20.1
2023-06-09T03:23:20.324Z,20.1
2023-06-09T03:25:51.384Z,20.1
2023-06-09T03:28:22.263Z,20
2023-06-09T03:30:53.178Z,20
2023-06-09T03:33:24.044Z,20
2023-06-09T03:35:54.400Z,20
2023-06-09T03:38:25.121Z,20
2023-06-09T03:40:56.413Z,20.2
2023-06-09T03:43:27.410Z,20
2023-06-09T03:45:58.476Z,20.1
2023-06-09T03:48:30.121Z,20
2023-06-09T03:51:01.179Z,20
2023-06-09T03:53:30.521Z,20.1
2023-06-09T03:56:01.348Z,20.2
2023-06-09T03:58:32.028Z,20.2
2023-06-09T04:01:03.155Z,20.3
2023-06-09T04:03:34.103Z,20.1
2023-06-09T04:06:05.203Z,20.1
2023-06-09T04:08:34.707Z,20.2
2023-06-09T04:11:05.384Z,20.2
2023-06-09T04:13:36.098Z,20.2
2023-06-09T04:16:07.307Z,20.1
2023-06-09T04:18:38.118Z,20.1
2023-06-09T04:21:08.477Z,20.1
2023-06-09T04:23:39.533Z,20.2
2023-06-09T04:26:10.279Z,20.3
2023-06-09T04:28:41.451Z,20.3
2023-06-09T04:31:12.549Z,20.5
2023-06-09T04:33:43.549Z,20.5
2023-06-09T04:36:14.370Z,20.6
2023-06-09T04:38:44.872Z,20.7
2023-06-09T04:41:16.128Z,20.5
2023-06-09T04:43:47.038Z,20.6
2023-06-09T04:46:18.275Z,20.7
2023-06-09T04:48:50.001Z,20.8
2023-06-09T04:51:20.931Z,20.8
2023-06-09T04:53:51.817Z,21
2023-06-09T04:56:24.041Z,20.8
2023-06-09T04:58:55.657Z,20.9
2023-06-09T05:01:26.521Z,20.9
2023-06-09T05:03:55.501Z,20.9
2023-06-09T05:06:26.455Z,20.9
2023-06-09T05:08:57.246Z,21
2023-06-09T05:11:27.803Z,20.9
2023-06-09T05:13:58.646Z,21
2023-06-09T05:16:29.704Z,20.9
2023-06-09T05:19:01.196Z,21
2023-06-09T05:21:32.325Z,21.1
2023-06-09T05:24:03.311Z,21.1
2023-06-09T05:26:42.154Z,21
2023-06-09T05:29:12.646Z,21.1
2023-06-09T05:31:43.712Z,21
2023-06-09T05:34:14.408Z,20.8
2023-06-09T05:36:44.876Z,21
2023-06-09T05:39:15.520Z,21
2023-06-09T05:41:46.091Z,21
2023-06-09T05:44:16.131Z,21
2023-06-09T05:46:46.710Z,21
2023-06-09T05:49:17.081Z,21.1
2023-06-09T05:51:47.865Z,21.1
2023-06-09T05:54:18.964Z,21.1
2023-06-09T05:56:52.317Z,21
2023-06-09T05:59:22.731Z,21
2023-06-09T06:01:53.518Z,21
2023-06-09T06:04:24.097Z,21
2023-06-09T06:06:58.994Z,20.9
2023-06-09T06:09:30.376Z,20.9
2023-06-09T06:12:01.100Z,20.9
2023-06-09T06:14:31.764Z,20.9
2023-06-09T06:17:04.733Z,21
2023-06-09T06:19:37.602Z,21
2023-06-09T06:22:08.257Z,21.1
2023-06-09T06:24:39.410Z,21
2023-06-09T06:27:10.119Z,21
2023-06-09T06:29:40.656Z,21
2023-06-09T06:32:13.535Z,21
2023-06-09T06:34:43.952Z,21.2
2023-06-09T06:37:14.780Z,21.2
2023-06-09T06:39:46.169Z,21.3
2023-06-09T06:42:16.707Z,21.1
2023-06-09T06:44:47.161Z,21.2
2023-06-09T06:47:17.994Z,21.3
2023-06-09T06:49:48.526Z,21.2
2023-06-09T06:52:19.417Z,21.3
2023-06-09T06:54:50.115Z,21.3
2023-06-09T06:57:20.940Z,21.4
2023-06-09T06:59:51.390Z,21.2
2023-06-09T07:02:22.510Z,21.3
2023-06-09T07:04:51.500Z,21.3
2023-06-09T07:07:22.364Z,21.3
2023-06-09T07:09:53.108Z,21.3
2023-06-09T07:12:24.053Z,21.4
2023-06-09T07:14:53.505Z,21.4
2023-06-09T07:17:23.941Z,21.4
2023-06-09T07:19:56.290Z,21.4
2023-06-09T07:22:28.146Z,21.5
2023-06-09T07:24:59.402Z,21.6
2023-06-09T07:27:28.375Z,21.5
2023-06-09T07:30:00.947Z,21.5
2023-06-09T07:32:32.086Z,21.5
2023-06-09T07:35:04.768Z,21.6
2023-06-09T07:37:35.840Z,21.6
2023-06-09T07:40:17.792Z,21.6
2023-06-09T07:42:37.553Z,21.5
2023-06-09T07:45:10.375Z,21.6
2023-06-09T07:47:41.060Z,21.6
2023-06-09T07:50:11.768Z,21.6
2023-06-09T07:52:42.962Z,21.7
2023-06-09T07:55:15.162Z,21.4
2023-06-09T07:57:45.191Z,21.5
2023-06-09T08:00:15.886Z,21.6
2023-06-09T08:02:46.402Z,21.7
2023-06-09T08:05:20.221Z,21.8
2023-06-09T08:07:50.668Z,21.8
2023-06-09T08:10:21.225Z,21.8
2023-06-09T08:12:52.432Z,21.8
2023-06-09T08:15:23.174Z,21.9
2023-06-09T08:17:53.986Z,21.8
2023-06-09T08:20:25.151Z,21.9
2023-06-09T08:22:58.474Z,22
2023-06-09T08:25:29.565Z,22
2023-06-09T08:28:00.542Z,22.1
2023-06-09T08:30:40.211Z,21.9
2023-06-09T08:33:11.529Z,22
2023-06-09T08:35:42.815Z,22.1
2023-06-09T08:38:13.350Z,22.2
2023-06-09T08:40:53.335Z,22.2
2023-06-09T08:43:27.019Z,22.3
2023-06-09T08:45:59.025Z,22.3
2023-06-09T08:48:29.974Z,22.3
2023-06-09T08:51:02.611Z,22.4
2023-06-09T08:53:34.649Z,22.5
2023-06-09T08:56:05.829Z,22.6
2023-06-09T08:58:37.448Z,22.6
2023-06-09T09:01:08.913Z,22.6
2023-06-09T09:03:43.024Z,22.8
2023-06-09T09:06:15.878Z,22.8
2023-06-09T09:08:47.566Z,22.8
2023-06-09T09:11:18.534Z,23
2023-06-09T09:13:49.773Z,23
2023-06-09T09:16:23.174Z,23.3
2023-06-09T09:19:00.158Z,23.5
2023-06-09T09:21:30.781Z,23.7
2023-06-09T09:24:06.093Z,23.5
2023-06-09T09:26:42.067Z,23.7
2023-06-09T09:29:10.575Z,23.7
2023-06-09T09:31:44.450Z,23.7
2023-06-09T09:34:17.886Z,23.7
2023-06-09T09:36:48.882Z,23.6
2023-06-09T09:39:21.020Z,23.7
2023-06-09T09:41:52.804Z,23.7
2023-06-09T09:44:23.330Z,23.8
2023-06-09T09:46:56.175Z,24
2023-06-09T09:49:29.152Z,23.9
2023-06-09T09:51:59.885Z,24.1
2023-06-09T09:54:33.188Z,24.2
2023-06-09T09:57:03.951Z,24.2
2023-06-09T09:59:35.206Z,24.2
2023-06-09T10:02:06.892Z,24.2
2023-06-09T10:04:39.216Z,24.3
2023-06-09T10:07:13.188Z,24.6
2023-06-09T10:09:45.484Z,24.7
2023-06-09T10:12:18.958Z,24.9
2023-06-09T10:14:50.425Z,25
2023-06-09T10:17:21.562Z,25.1
2023-06-09T10:19:52.286Z,25.2
2023-06-09T10:22:23.422Z,25.1
2023-06-09T10:24:54.404Z,25.3
2023-06-09T10:27:26.336Z,25.3
2023-06-09T10:29:57.257Z,25.5
2023-06-09T10:32:30.302Z,25.6
2023-06-09T10:35:01.053Z,25.6
2023-06-09T10:37:31.809Z,25.7
2023-06-09T10:40:02.160Z,25.7
2023-06-09T10:42:31.708Z,25.8
2023-06-09T10:45:08.674Z,25.9
2023-06-09T10:47:47.816Z,26
2023-06-09T10:50:23.274Z,25.9
2023-06-09T10:52:54.045Z,26.1
2023-06-09T10:55:24.728Z,26.1
2023-06-09T10:57:56.196Z,26.1
2023-06-09T11:00:30.891Z,26.2
2023-06-09T11:03:00.049Z,26.3
2023-06-09T11:05:30.220Z,26.3
2023-06-09T11:08:00.745Z,26.3
2023-06-09T11:10:32.256Z,26.4
2023-06-09T11:13:05.396Z,26.3
2023-06-09T11:15:36.809Z,26.4
2023-06-09T11:18:07.197Z,26.5
2023-06-09T11:20:41.774Z,26.5
2023-06-09T11:23:17.009Z,26.6
2023-06-09T11:25:48.292Z,26.7
2023-06-09T11:28:18.606Z,26.7
2023-06-09T11:30:53.108Z,26.7
2023-06-09T11:33:22.175Z,26.7
2023-06-09T11:35:55.955Z,26.8
2023-06-09T11:38:27.361Z,26.9
2023-06-09T11:41:04.971Z,26.8
2023-06-09T11:43:38.879Z,26.9
2023-06-09T11:46:09.833Z,26.9
2023-06-09T11:48:44.750Z,27
2023-06-09T11:51:14.096Z,26.9
2023-06-09T11:53:44.732Z,26.9
2023-06-09T11:56:15.402Z,26.8
2023-06-09T11:58:52.509Z,26.8
2023-06-09T12:01:23.595Z,26.9
2023-06-09T12:03:55.575Z,26.9
2023-06-09T12:06:27.934Z,27
2023-06-09T12:08:56.885Z,27.1
2023-06-09T12:11:32.580Z,27.2
2023-06-09T12:14:03.874Z,27.1
2023-06-09T12:16:34.896Z,27.1
2023-06-09T12:19:05.539Z,27.3
2023-06-09T12:21:45.260Z,27.4
2023-06-09T12:24:15.913Z,27.5
2023-06-09T12:26:48.759Z,27.4
2023-06-09T12:29:19.446Z,27.4
2023-06-09T12:31:56.939Z,27.4
2023-06-09T12:34:28.772Z,27.7
2023-06-09T12:37:00.470Z,27.9
2023-06-09T12:39:31.242Z,27.9
2023-06-09T12:42:09.140Z,28.2
2023-06-09T12:44:39.433Z,28.2
2023-06-09T12:47:19.004Z,28.1
2023-06-09T12:49:53.725Z,28.3
2023-06-09T12:52:24.619Z,28.4
2023-06-09T12:55:10.566Z,28.4
2023-06-09T12:57:29.557Z,28.3
2023-06-09T13:00:11.514Z,28.5
2023-06-09T13:02:31.513Z,28.6
2023-06-09T13:05:04.520Z,28.8
2023-06-09T13:07:35.222Z,28.8
2023-06-09T13:10:06.087Z,28.9
2023-06-09T13:12:36.708Z,28.8
2023-06-09T13:15:07.915Z,28.5
2023-06-09T13:17:38.447Z,28.4
2023-06-09T13:20:09.481Z,28.7
2023-06-09T13:22:40.046Z,28.7
2023-06-09T13:25:10.654Z,28.7
2023-06-09T13:27:49.956Z,28.9
2023-06-09T13:30:26.626Z,29.1
2023-06-09T13:32:57.853Z,29
2023-06-09T13:35:27.067Z,29.1
2023-06-09T13:37:58.206Z,29.2
2023-06-09T13:40:30.921Z,29.1
2023-06-09T13:43:04.123Z,29.2
2023-06-09T13:45:34.965Z,29.3
2023-06-09T13:48:06.610Z,29.3
2023-06-09T13:50:37.187Z,29.1
2023-06-09T13:53:08.003Z,29.3
2023-06-09T13:55:38.713Z,29.4
2023-06-09T13:58:09.697Z,29.4
2023-06-09T14:00:40.538Z,29.5
2023-06-09T14:03:11.401Z,29.5
2023-06-09T14:05:41.984Z,29.4
2023-06-09T14:08:12.606Z,29.3
2023-06-09T14:10:45.956Z,29.3
2023-06-09T14:13:16.801Z,29.2
2023-06-09T14:15:47.575Z,29.4
2023-06-09T14:18:16.645Z,29.4
2023-06-09T14:20:47.250Z,29.3
2023-06-09T14:23:17.520Z,29.1
2023-06-09T14:25:47.797Z,29.1
2023-06-09T14:28:17.368Z,28.9
2023-06-09T14:30:48.531Z,28.7
2023-06-09T14:33:20.507Z,28.5
2023-06-09T14:35:51.589Z,28.5
2023-06-09T14:38:22.105Z,28.3
2023-06-09T14:40:54.694Z,28.3
2023-06-09T14:43:23.838Z,28.1
2023-06-09T14:45:54.489Z,28.2
2023-06-09T14:48:28.250Z,28.1
2023-06-09T14:51:04.984Z,28
2023-06-09T14:53:35.776Z,27.9
2023-06-09T14:56:06.550Z,27.9
2023-06-09T14:58:35.780Z,27.7
2023-06-09T15:01:05.989Z,27.8
2023-06-09T15:03:38.653Z,27.5
2023-06-09T15:06:09.449Z,27.4
2023-06-09T15:08:39.775Z,27.3
2023-06-09T15:11:11.114Z,27.3
2023-06-09T15:13:42.512Z,27.2
2023-06-09T15:16:13.293Z,27.2
2023-06-09T15:18:43.769Z,27.3
2023-06-09T15:21:14.569Z,27.3
2023-06-09T15:23:45.115Z,27
2023-06-09T15:26:16.552Z,27.1
2023-06-09T15:28:47.939Z,27
2023-06-09T15:31:20.785Z,27
2023-06-09T15:33:51.191Z,26.9
2023-06-09T15:36:20.679Z,26.9
2023-06-09T15:38:57.010Z,26.8
2023-06-09T15:41:34.098Z,26.8
2023-06-09T15:44:04.588Z,26.8
2023-06-09T15:46:37.568Z,26.8
2023-06-09T15:49:17.030Z,26.7
2023-06-09T15:51:45.990Z,26.7
2023-06-09T15:57:04.127Z,26.6
2023-06-09T15:59:43.070Z,26.6
2023-06-09T16:02:21.825Z,26.5
2023-06-09T16:04:52.229Z,26.4
2023-06-09T16:07:42.676Z,26.5
2023-06-09T16:10:13.042Z,26.5
2023-06-09T16:12:42.740Z,26.4
2023-06-09T16:15:12.904Z,26.3
2023-06-09T16:17:44.634Z,26.3
2023-06-09T16:20:21.410Z,26.2
2023-06-09T16:22:52.341Z,26.2
2023-06-09T16:25:22.650Z,26.1
2023-06-09T16:27:52.971Z,26
2023-06-09T16:30:23.581Z,26
2023-06-09T16:32:54.066Z,26
2023-06-09T16:35:24.623Z,26.1
2023-06-09T16:37:55.532Z,25.9
2023-06-09T16:40:26.522Z,25.9
2023-06-09T16:42:59.358Z,26
2023-06-09T16:45:30.900Z,26
2023-06-09T16:48:01.124Z,26
2023-06-09T16:50:31.369Z,25.8
2023-06-09T16:53:01.861Z,25.9
2023-06-09T16:55:32.407Z,26
2023-06-09T16:58:03.988Z,26
2023-06-09T17:00:36.690Z,25.9
2023-06-09T17:03:06.833Z,25.9
2023-06-09T17:05:39.299Z,25.9
2023-06-09T17:08:09.546Z,25.7
2023-06-09T17:10:40.010Z,25.8
2023-06-09T17:13:13.674Z,25.8
2023-06-09T17:15:44.251Z,25.6
2023-06-09T17:18:17.744Z,25.7
2023-06-09T17:20:50.092Z,25.7
2023-06-09T17:23:23.522Z,25.6
2023-06-09T17:25:54.126Z,25.7
2023-06-09T17:28:24.872Z,25.6
2023-06-09T17:30:57.130Z,25.6
2023-06-09T17:33:27.776Z,25.6
2023-06-09T17:35:57.973Z,25.6
2023-06-09T17:38:28.101Z,25.6
2023-06-09T17:40:59.790Z,25.5
2023-06-09T17:43:30.278Z,25.4
2023-06-09T17:46:00.591Z,25.4
2023-06-09T17:48:35.967Z,25.5
2023-06-09T17:51:06.919Z,25.4
2023-06-09T17:53:37.090Z,25.5
2023-06-09T17:56:11.816Z,25.5
2023-06-09T17:58:42.451Z,25.4
2023-06-09T18:01:13.292Z,25.4
2023-06-09T18:03:43.622Z,25.5
2023-06-09T18:06:15.201Z,25.4
2023-06-09T18:08:44.092Z,25.4
2023-06-09T18:11:18.881Z,25.3
2023-06-09T18:13:49.408Z,25.3
2023-06-09T18:16:21.496Z,25.3
2023-06-09T18:18:51.836Z,25.3
2023-06-09T18:21:22.676Z,25.2
2023-06-09T18:23:57.340Z,25.2
2023-06-09T18:26:32.975Z,25.2
2023-06-09T18:29:03.024Z,25.1
2023-06-09T18:31:37.872Z,25.2
2023-06-09T18:34:10.374Z,25.1
2023-06-09T18:36:43.256Z,25
2023-06-09T18:39:13.849Z,25
2023-06-09T18:41:44.221Z,25
2023-06-09T18:44:19.563Z,24.9
2023-06-09T18:46:49.785Z,24.9
2023-06-09T18:49:20.661Z,24.9
2023-06-09T18:51:51.436Z,24.8
2023-06-09T18:54:23.866Z,24.9
2023-06-09T18:57:02.734Z,24.7
2023-06-09T18:59:33.765Z,24.6
2023-06-09T19:02:04.284Z,24.5
2023-06-09T19:04:34.767Z,24.5
2023-06-09T19:07:05.156Z,24.6
2023-06-09T19:09:35.603Z,24.5
2023-06-09T19:12:06.974Z,24.4
2023-06-09T19:14:37.620Z,24.2
2023-06-09T19:17:08.420Z,24.3
2023-06-09T19:19:38.704Z,24.4
2023-06-09T19:22:09.181Z,24.3
2023-06-09T19:24:41.487Z,24.4
2023-06-09T19:27:11.750Z,24.3
2023-06-09T19:29:42.107Z,24.3
2023-06-09T19:32:16.395Z,24.4
2023-06-09T19:34:46.527Z,24.4
2023-06-09T19:37:26.233Z,24.3
2023-06-09T19:39:59.468Z,24.3
2023-06-09T19:42:30.110Z,24.3
2023-06-09T19:45:00.502Z,24.3
2023-06-09T19:47:31.113Z,24.2
2023-06-09T19:50:03.199Z,24.2
2023-06-09T19:52:34.720Z,24.2
2023-06-09T19:55:09.390Z,24.1
2023-06-09T19:57:42.784Z,24.1
2023-06-09T20:00:13.559Z,24.1
2023-06-09T20:02:44.495Z,24.1
2023-06-09T20:05:14.752Z,24.1
2023-06-09T20:07:46.413Z,24
2023-06-09T20:10:16.623Z,24.1
2023-06-09T20:12:50.359Z,24
2023-06-09T20:15:40.982Z,24
2023-06-09T20:18:22.590Z,23.9
2023-06-09T20:23:30.270Z,24
2023-06-09T20:26:05.261Z,24
2023-06-09T20:28:38.708Z,23.8
2023-06-09T20:31:08.242Z,23.8
2023-06-09T20:33:48.913Z,23.8
2023-06-09T20:36:27.977Z,23.8
2023-06-09T20:39:09.672Z,23.7
2023-06-09T20:41:44.025Z,23.7
2023-06-09T20:44:14.454Z,23.6
2023-06-09T20:46:44.775Z,23.5
2023-06-09T20:49:15.253Z,23.5
2023-06-09T20:51:45.642Z,23.5
2023-06-09T20:54:17.005Z,23.4
2023-06-09T20:56:47.515Z,23.4
2023-06-09T20:59:18.056Z,23.3
2023-06-09T21:01:48.430Z,23.4
2023-06-09T21:04:19.522Z,23.2
2023-06-09T21:07:08.005Z,23.3
2023-06-09T21:09:48.412Z,23.4
2023-06-09T21:12:20.812Z,23.2
2023-06-09T21:14:51.639Z,23.2
2023-06-09T21:17:22.032Z,23
2023-06-09T21:19:52.963Z,23
2023-06-09T21:22:23.192Z,23
2023-06-09T21:24:53.795Z,23.1
2023-06-09T21:27:24.043Z,23.1
2023-06-09T21:29:54.618Z,23
2023-06-09T21:32:24.697Z,22.9
2023-06-09T21:34:54.809Z,22.9
2023-06-09T21:37:25.303Z,22.9
2023-06-09T21:39:55.704Z,22.9
2023-06-09T21:42:26.464Z,22.9
2023-06-09T21:44:57.024Z,22.8
2023-06-09T21:47:27.641Z,22.7
2023-06-09T21:49:58.387Z,22.7
2023-06-09T21:52:29.052Z,22.6
2023-06-09T21:54:59.324Z,22.7
2023-06-09T21:57:30.053Z,22.4
2023-06-09T22:00:00.636Z,22.6
2023-06-09T22:02:31.457Z,22.5
2023-06-09T22:05:01.578Z,22.4
2023-06-09T22:07:32.254Z,22.3
2023-06-09T22:10:02.971Z,22.5
2023-06-09T22:12:38.024Z,22.5
2023-06-09T22:15:12.170Z,22.4
2023-06-09T22:17:45.125Z,22.5
2023-06-09T22:20:16.052Z,22.4
2023-06-09T22:22:46.741Z,22.4
2023-06-09T22:25:17.368Z,22.3
2023-06-09T22:27:47.746Z,22.4
2023-06-09T22:30:18.278Z,22.3
2023-06-09T22:32:48.706Z,22.3
2023-06-09T22:35:19.024Z,22.2
2023-06-09T22:37:49.557Z,22.2
2023-06-09T22:40:21.230Z,22.2
2023-06-09T22:42:51.665Z,22.2
2023-06-09T22:45:22.487Z,22.2
2023-06-09T22:47:51.364Z,22.1
2023-06-09T22:50:21.958Z,22.1
2023-06-09T22:52:53.265Z,22.1
2023-06-09T22:55:24.632Z,22.1
2023-06-09T22:57:55.481Z,22
2023-06-09T23:00:26.009Z,21.9
2023-06-09T23:02:56.531Z,22
2023-06-09T23:05:27.325Z,22
2023-06-09T23:07:58.324Z,21.9
2023-06-09T23:10:28.990Z,21.7
2023-06-09T23:13:01.968Z,21.9
2023-06-09T23:15:32.685Z,21.8
2023-06-09T23:18:02.103Z,21.6
2023-06-09T23:20:33.141Z,21.8
2023-06-09T23:23:04.411Z,21.7
2023-06-09T23:25:35.085Z,21.6
2023-06-09T23:28:05.978Z,21.7
2023-06-09T23:30:36.583Z,21.6
2023-06-09T23:33:07.208Z,21.7
2023-06-09T23:35:37.794Z,21.5
2023-06-09T23:38:07.178Z,21.6
2023-06-09T23:40:37.705Z,21.7
2023-06-09T23:43:08.702Z,21.6
2023-06-09T23:45:39.694Z,21.7
2023-06-09T23:48:10.674Z,21.6
2023-06-09T23:50:41.528Z,21.5
2023-06-09T23:53:13.395Z,21.4
2023-06-09T23:55:44.018Z,21.3
2023-06-09T23:58:14.872Z,21.4
